Řízení letového provozu České republiky
Letiste: LKKV Aktualizace: 23.08.2017 08:05:07  UTC
 METAR LKKV 23.08. 08:00 ...
METAR LKKV 230800Z VRB03KT 9999 FEW030 14/07 Q1020=
 TAF LKKV 23.08. 05:00 ...
TAF LKKV 230500Z 2306/2412 VRB02KT CAVOK      TEMPO 2310/2315 34003KT=